Time;durP1;ratioP1;P1;durP2;ratioP2;P2;SDS_P1;SDS_P2;PMS_P1;PMS_P2;Temp;Humidity;BMP_temperature;BMP_pressure;BME280_temperature;BME280_humidity;BME280_pressure;Samples;Min_cycle;Max_cycle;Signal;HPM_P1;HPM_P2
2022/08/14 00:01:43;;;;;;;4.20;3.90;;;;;;;;;;4969182;28;20219;-65
2022/08/14 00:04:11;;;;;;;3.83;3.50;;;;;;;;;;4968957;28;20213;-65
2022/08/14 00:06:38;;;;;;;4.07;3.92;;;;;;;;;;4968722;28;20218;-65
2022/08/14 00:09:05;;;;;;;4.30;3.60;;;;;;;;;;4972034;28;20210;-65
2022/08/14 00:11:37;;;;;;;4.32;3.97;;;;;;;;;;4982621;28;20221;-65
2022/08/14 00:14:04;;;;;;;4.32;3.85;;;;;;;;;;4973068;28;20288;-64
2022/08/14 00:16:31;;;;;;;4.38;3.97;;;;;;;;;;4972286;28;20237;-65
2022/08/14 00:18:59;;;;;;;3.67;3.58;;;;;;;;;;4966952;28;20266;-65
2022/08/14 00:21:27;;;;;;;3.85;3.65;;;;;;;;;;4968878;28;20365;-65
2022/08/14 00:23:55;;;;;;;3.78;3.60;;;;;;;;;;4973013;28;20217;-65
2022/08/14 00:26:22;;;;;;;3.85;3.65;;;;;;;;;;4972070;28;20214;-65
2022/08/14 00:28:49;;;;;;;4.18;3.88;;;;;;;;;;4972704;28;20787;-65
2022/08/14 00:31:17;;;;;;;4.07;3.83;;;;;;;;;;4972859;28;20211;-65
2022/08/14 00:33:44;;;;;;;3.92;3.72;;;;;;;;;;4972482;28;20220;-65
2022/08/14 00:36:11;;;;;;;4.13;3.90;;;;;;;;;;4971791;28;20640;-64
2022/08/14 00:38:39;;;;;;;4.40;3.88;;;;;;;;;;4972685;28;20240;-65
2022/08/14 00:41:08;;;;;;;4.00;3.80;;;;;;;;;;4961069;28;20218;-66
2022/08/14 00:43:35;;;;;;;4.47;4.22;;;;;;;;;;4971210;28;20218;-65
2022/08/14 00:46:03;;;;;;;4.35;4.05;;;;;;;;;;4972286;28;20989;-66
2022/08/14 00:48:31;;;;;;;4.25;3.78;;;;;;;;;;4972780;28;20747;-65
2022/08/14 00:50:58;;;;;;;3.95;3.75;;;;;;;;;;4971864;28;20849;-65
2022/08/14 00:53:25;;;;;;;4.57;4.30;;;;;;;;;;4971860;28;20222;-65
2022/08/14 00:55:56;;;;;;;4.47;4.28;;;;;;;;;;4972040;28;20207;-65
2022/08/14 00:58:33;;;;;;;5.93;4.35;;;;;;;;;;4971781;28;20731;-65
2022/08/14 01:01:01;;;;;;;4.60;4.38;;;;;;;;;;4971361;28;20210;-65
2022/08/14 01:03:29;;;;;;;5.15;4.78;;;;;;;;;;4972199;28;20214;-66
2022/08/14 01:05:56;;;;;;;4.38;4.18;;;;;;;;;;4971743;28;20307;-65
2022/08/14 01:08:24;;;;;;;4.38;4.18;;;;;;;;;;4972031;28;20655;-65
2022/08/14 01:10:54;;;;;;;4.97;4.55;;;;;;;;;;4971682;28;20210;-65
2022/08/14 01:13:23;;;;;;;4.47;4.07;;;;;;;;;;4971913;28;20320;-65
2022/08/14 01:15:51;;;;;;;5.15;4.85;;;;;;;;;;4971615;28;20222;-64
2022/08/14 01:21:03;;;;;;;4.72;4.53;;;;;;;;;;4970784;28;20215;-64
2022/08/14 01:23:31;;;;;;;5.93;4.65;;;;;;;;;;4971639;28;20210;-64
2022/08/14 01:25:59;;;;;;;5.32;4.90;;;;;;;;;;4971318;28;20281;-64
2022/08/14 01:28:26;;;;;;;4.82;4.63;;;;;;;;;;4970520;28;20297;-65
2022/08/14 01:30:57;;;;;;;5.30;4.90;;;;;;;;;;4967446;28;20688;-65
2022/08/14 01:33:27;;;;;;;5.50;5.07;;;;;;;;;;4971200;28;20225;-65
2022/08/14 01:35:55;;;;;;;5.40;4.90;;;;;;;;;;4971219;28;20209;-65
2022/08/14 01:38:22;;;;;;;4.88;4.47;;;;;;;;;;4970953;28;20304;-65
2022/08/14 01:40:51;;;;;;;5.15;4.85;;;;;;;;;;4971816;28;20214;-65
2022/08/14 01:43:18;;;;;;;5.38;5.10;;;;;;;;;;4971389;28;20206;-65
2022/08/14 01:45:51;;;;;;;5.93;5.43;;;;;;;;;;4971460;28;20277;-65
2022/08/14 01:48:18;;;;;;;5.60;5.30;;;;;;;;;;4971124;28;20250;-65
2022/08/14 01:50:46;;;;;;;5.22;4.93;;;;;;;;;;4971373;28;20214;-65
2022/08/14 01:53:13;;;;;;;5.47;5.10;;;;;;;;;;4969133;28;20757;-65
2022/08/14 01:55:40;;;;;;;5.38;5.07;;;;;;;;;;4970829;28;20353;-65
2022/08/14 01:58:12;;;;;;;5.55;5.15;;;;;;;;;;4971056;28;20230;-64
2022/08/14 02:00:39;;;;;;;6.15;5.53;;;;;;;;;;4971185;28;21896;-65
2022/08/14 02:03:06;;;;;;;5.78;5.45;;;;;;;;;;4970746;28;20210;-65
2022/08/14 02:05:34;;;;;;;5.70;5.25;;;;;;;;;;4971152;28;20301;-65
2022/08/14 02:08:01;;;;;;;6.00;5.57;;;;;;;;;;4970805;28;20277;-64
2022/08/14 02:10:28;;;;;;;6.72;5.65;;;;;;;;;;4970652;28;20221;-64
2022/08/14 02:12:56;;;;;;;6.72;5.60;;;;;;;;;;4970405;28;20331;-65
2022/08/14 02:15:24;;;;;;;5.70;5.40;;;;;;;;;;4970509;28;20322;-65
2022/08/14 02:17:52;;;;;;;5.25;4.95;;;;;;;;;;4970499;28;20238;-65
2022/08/14 02:20:19;;;;;;;5.75;5.45;;;;;;;;;;4970650;28;20238;-65
2022/08/14 02:22:47;;;;;;;5.47;5.18;;;;;;;;;;4970756;28;20203;-65
2022/08/14 02:25:14;;;;;;;5.75;5.18;;;;;;;;;;4970758;28;20210;-65
2022/08/14 02:27:43;;;;;;;5.60;5.13;;;;;;;;;;4970520;28;20213;-65
2022/08/14 02:30:12;;;;;;;5.70;5.22;;;;;;;;;;4970523;28;20214;-64
2022/08/14 02:32:40;;;;;;;6.28;5.70;;;;;;;;;;4970440;28;20206;-65
2022/08/14 02:35:12;;;;;;;5.40;5.10;;;;;;;;;;4968748;28;20203;-64
2022/08/14 02:37:39;;;;;;;6.10;5.70;;;;;;;;;;4969984;28;20236;-64
2022/08/14 02:40:08;;;;;;;5.50;5.25;;;;;;;;;;4970582;28;20214;-65
2022/08/14 02:42:35;;;;;;;6.20;5.80;;;;;;;;;;4970353;28;20222;-65
2022/08/14 02:45:02;;;;;;;6.30;5.80;;;;;;;;;;4969998;28;20233;-64
2022/08/14 02:47:29;;;;;;;6.30;5.80;;;;;;;;;;4970027;28;20218;-65
2022/08/14 02:49:57;;;;;;;5.55;5.20;;;;;;;;;;4969253;28;20203;-65
2022/08/14 02:52:26;;;;;;;6.50;5.63;;;;;;;;;;4969413;28;20210;-65
2022/08/14 02:54:53;;;;;;;6.25;5.65;;;;;;;;;;4969469;28;20206;-65
2022/08/14 02:57:21;;;;;;;5.80;5.50;;;;;;;;;;4969291;28;20646;-65
2022/08/14 02:59:49;;;;;;;6.03;5.63;;;;;;;;;;4969647;28;20265;-65
2022/08/14 03:02:16;;;;;;;7.50;6.00;;;;;;;;;;4969353;28;20213;-65
2022/08/14 03:04:43;;;;;;;7.95;5.90;;;;;;;;;;4969248;28;20265;-65
2022/08/14 03:07:14;;;;;;;6.47;6.00;;;;;;;;;;4968961;28;20240;-65
2022/08/14 03:09:41;;;;;;;6.53;5.93;;;;;;;;;;4969610;28;20237;-65
2022/08/14 03:12:09;;;;;;;6.82;6.30;;;;;;;;;;4969466;28;20260;-65
2022/08/14 03:14:38;;;;;;;7.30;6.03;;;;;;;;;;4969626;28;20360;-64
2022/08/14 03:17:10;;;;;;;6.60;6.10;;;;;;;;;;4969719;28;20237;-65
2022/08/14 03:19:37;;;;;;;6.43;5.93;;;;;;;;;;4965426;28;20607;-65
2022/08/14 03:22:04;;;;;;;6.22;5.82;;;;;;;;;;4969959;28;20218;-64
2022/08/14 03:24:35;;;;;;;7.20;6.25;;;;;;;;;;4969066;28;20206;-65
2022/08/14 03:27:02;;;;;;;5.80;5.50;;;;;;;;;;4969566;28;20265;-65
2022/08/14 03:29:29;;;;;;;10.45;5.90;;;;;;;;;;4969366;28;20218;-65
2022/08/14 03:31:58;;;;;;;6.55;6.15;;;;;;;;;;4969563;28;20214;-65
2022/08/14 03:34:26;;;;;;;5.68;5.32;;;;;;;;;;4968966;28;20806;-65
2022/08/14 03:36:54;;;;;;;6.05;5.65;;;;;;;;;;4969212;28;20206;-65
2022/08/14 03:39:21;;;;;;;6.50;5.50;;;;;;;;;;4969607;28;20264;-66
2022/08/14 03:41:50;;;;;;;7.22;5.70;;;;;;;;;;4969643;28;20293;-65
2022/08/14 03:44:18;;;;;;;6.30;5.88;;;;;;;;;;4974600;28;20218;-65
2022/08/14 03:46:45;;;;;;;5.63;5.32;;;;;;;;;;4975657;28;20202;-64
2022/08/14 03:49:24;;;;;;;6.72;5.95;;;;;;;;;;4975608;28;20218;-65
2022/08/14 03:51:51;;;;;;;6.55;6.05;;;;;;;;;;4975395;28;20208;-65
2022/08/14 03:54:18;;;;;;;7.10;5.80;;;;;;;;;;4975804;28;20214;-65
2022/08/14 03:56:45;;;;;;;6.20;5.70;;;;;;;;;;4975879;28;20206;-65
2022/08/14 03:59:14;;;;;;;6.65;6.05;;;;;;;;;;4975391;28;20233;-65
2022/08/14 04:01:42;;;;;;;6.53;6.03;;;;;;;;;;4975768;28;20229;-65
2022/08/14 04:04:10;;;;;;;6.47;6.07;;;;;;;;;;4975637;28;20214;-65
2022/08/14 04:06:38;;;;;;;6.45;6.00;;;;;;;;;;4975603;28;20210;-65
2022/08/14 04:09:05;;;;;;;7.10;6.45;;;;;;;;;;4975631;28;20276;-65
2022/08/14 04:11:34;;;;;;;6.93;6.38;;;;;;;;;;4975794;28;20312;-65
2022/08/14 04:14:02;;;;;;;7.00;6.30;;;;;;;;;;4975453;28;20213;-65
2022/08/14 04:16:30;;;;;;;6.78;6.18;;;;;;;;;;4975414;28;20214;-65
2022/08/14 04:18:58;;;;;;;6.60;5.90;;;;;;;;;;4975465;28;20256;-65
2022/08/14 04:21:28;;;;;;;6.63;6.13;;;;;;;;;;4975754;28;20303;-65
2022/08/14 04:23:57;;;;;;;6.47;5.97;;;;;;;;;;4964637;28;20202;-65
2022/08/14 04:26:26;;;;;;;6.15;5.80;;;;;;;;;;4974871;28;20222;-65
2022/08/14 04:28:53;;;;;;;6.93;6.22;;;;;;;;;;4975216;28;20214;-65
2022/08/14 04:31:21;;;;;;;6.97;6.28;;;;;;;;;;4975402;28;20214;-66
2022/08/14 04:33:51;;;;;;;6.93;6.43;;;;;;;;;;4975136;28;20649;-65
2022/08/14 04:36:18;;;;;;;7.15;6.63;;;;;;;;;;4975338;28;20210;-65
2022/08/14 04:44:15;;;;;;;7.22;6.72;;;;;;;;;;4954253;28;20217;-65
2022/08/14 04:48:11;;;;;;;7.50;6.07;;;;;;;;;;4975058;28;20213;-65
2022/08/14 04:49:31;;;;;;;7.47;6.65;;;;;;;;;;4973371;28;20683;-65
2022/08/14 04:51:59;;;;;;;6.70;6.30;;;;;;;;;;4975224;28;20214;-65
2022/08/14 04:54:26;;;;;;;7.45;6.95;;;;;;;;;;4972694;28;20217;-65
2022/08/14 04:56:55;;;;;;;7.13;6.63;;;;;;;;;;4972029;28;20261;-65
2022/08/14 04:59:23;;;;;;;8.02;7.25;;;;;;;;;;4971886;28;20657;-65
2022/08/14 05:01:51;;;;;;;7.43;6.85;;;;;;;;;;4972083;28;20222;-65
2022/08/14 05:04:18;;;;;;;7.07;6.50;;;;;;;;;;4971870;28;20209;-65
2022/08/14 05:06:46;;;;;;;7.90;7.30;;;;;;;;;;4972029;28;20293;-63
2022/08/14 05:09:17;;;;;;;7.70;7.00;;;;;;;;;;4971870;28;20210;-63
2022/08/14 05:11:44;;;;;;;7.53;6.85;;;;;;;;;;4971914;28;20221;-65
2022/08/14 05:14:11;;;;;;;7.60;7.07;;;;;;;;;;4971321;28;20217;-63
2022/08/14 05:16:38;;;;;;;7.32;6.72;;;;;;;;;;4971291;28;20293;-63
2022/08/14 05:19:07;;;;;;;8.10;7.30;;;;;;;;;;4971184;28;20324;-64
2022/08/14 05:21:34;;;;;;;7.63;6.70;;;;;;;;;;4971562;28;20206;-63
2022/08/14 05:24:03;;;;;;;7.65;6.88;;;;;;;;;;4971300;28;20264;-64
2022/08/14 05:26:30;;;;;;;7.15;6.65;;;;;;;;;;4971045;28;20208;-64
2022/08/14 05:28:57;;;;;;;9.05;7.13;;;;;;;;;;4961026;28;20213;-64
2022/08/14 05:31:24;;;;;;;7.00;6.53;;;;;;;;;;4971409;28;20221;-63
2022/08/14 05:33:51;;;;;;;7.82;7.20;;;;;;;;;;4971268;28;20218;-64
2022/08/14 05:36:18;;;;;;;7.72;7.07;;;;;;;;;;4971185;28;20210;-63
2022/08/14 05:38:47;;;;;;;7.45;6.95;;;;;;;;;;4970911;28;20237;-63
2022/08/14 05:41:16;;;;;;;7.50;6.88;;;;;;;;;;4971004;28;20207;-63
2022/08/14 05:43:44;;;;;;;7.68;7.05;;;;;;;;;;4971280;28;20633;-64
2022/08/14 05:46:12;;;;;;;7.80;7.10;;;;;;;;;;4970336;28;20241;-63
2022/08/14 05:48:39;;;;;;;7.32;6.43;;;;;;;;;;4968293;28;20297;-64
2022/08/14 05:51:06;;;;;;;8.60;7.43;;;;;;;;;;4970452;28;20206;-63
2022/08/14 05:53:34;;;;;;;7.95;7.32;;;;;;;;;;4971446;28;20247;-64
2022/08/14 05:56:01;;;;;;;7.00;6.50;;;;;;;;;;4970599;28;20681;-65
2022/08/14 05:58:30;;;;;;;7.78;7.15;;;;;;;;;;4970964;28;20414;-66
2022/08/14 06:00:57;;;;;;;6.88;6.43;;;;;;;;;;4970750;28;20210;-66
2022/08/14 06:03:24;;;;;;;7.45;6.95;;;;;;;;;;4970952;28;20297;-65
2022/08/14 06:05:54;;;;;;;7.80;7.20;;;;;;;;;;4970878;28;20214;-63
2022/08/14 06:08:23;;;;;;;7.20;6.60;;;;;;;;;;4969812;28;20199;-64
2022/08/14 06:10:50;;;;;;;7.07;6.57;;;;;;;;;;4970971;28;20276;-64
2022/08/14 06:13:18;;;;;;;7.47;6.88;;;;;;;;;;4970157;28;20206;-64
2022/08/14 06:15:46;;;;;;;8.02;7.10;;;;;;;;;;4970570;28;20265;-63
2022/08/14 06:18:16;;;;;;;7.32;6.72;;;;;;;;;;4970360;28;20775;-64
2022/08/14 06:20:43;;;;;;;7.57;6.78;;;;;;;;;;4968851;28;20214;-61
2022/08/14 06:23:10;;;;;;;7.72;7.00;;;;;;;;;;4970603;28;20265;-61
2022/08/14 06:25:37;;;;;;;7.38;6.85;;;;;;;;;;4970226;28;20308;-61
2022/08/14 06:28:05;;;;;;;7.43;6.93;;;;;;;;;;4970451;28;20206;-61
2022/08/14 06:30:32;;;;;;;7.25;6.65;;;;;;;;;;4970394;28;20728;-62
2022/08/14 06:33:01;;;;;;;7.13;6.43;;;;;;;;;;4970227;28;20214;-62
2022/08/14 06:35:28;;;;;;;7.45;6.95;;;;;;;;;;4970498;28;20217;-63
2022/08/14 06:37:56;;;;;;;7.22;6.72;;;;;;;;;;4970295;28;20210;-63
2022/08/14 06:40:23;;;;;;;7.30;6.80;;;;;;;;;;4969845;28;20234;-62
2022/08/14 06:42:51;;;;;;;7.10;6.13;;;;;;;;;;4970622;28;20218;-62
2022/08/14 06:45:18;;;;;;;7.97;6.60;;;;;;;;;;4969969;28;20269;-67
2022/08/14 06:47:46;;;;;;;7.22;6.72;;;;;;;;;;4970081;28;20214;-66
2022/08/14 06:50:16;;;;;;;7.30;6.80;;;;;;;;;;4968875;28;20804;-66
2022/08/14 06:52:44;;;;;;;7.70;7.15;;;;;;;;;;4968566;28;20230;-67
2022/08/14 06:55:12;;;;;;;6.88;6.45;;;;;;;;;;4969656;28;20276;-66
2022/08/14 06:57:40;;;;;;;7.65;6.95;;;;;;;;;;4969203;28;20211;-67
2022/08/14 07:00:08;;;;;;;7.93;7.30;;;;;;;;;;4970843;28;20768;-65
2022/08/14 07:08:07;;;;;;;7.15;6.75;;;;;;;;;;4969368;28;20217;-65
2022/08/14 07:10:34;;;;;;;6.95;6.43;;;;;;;;;;4967636;28;20211;-66
2022/08/14 07:13:01;;;;;;;7.90;7.15;;;;;;;;;;4967206;28;20214;-63
2022/08/14 07:15:28;;;;;;;8.23;7.53;;;;;;;;;;4969322;28;20972;-63
2022/08/14 07:17:55;;;;;;;7.43;6.85;;;;;;;;;;4968654;28;20325;-63
2022/08/14 07:20:27;;;;;;;8.65;6.93;;;;;;;;;;4969044;28;20300;-62
2022/08/14 07:22:57;;;;;;;6.57;6.05;;;;;;;;;;4971451;28;20203;-63
2022/08/14 07:25:24;;;;;;;7.68;7.18;;;;;;;;;;4985486;28;20207;-62
2022/08/14 07:27:51;;;;;;;8.80;6.78;;;;;;;;;;4970167;28;20318;-63
2022/08/14 07:30:18;;;;;;;7.30;6.70;;;;;;;;;;4969798;28;20221;-62
2022/08/14 07:32:45;;;;;;;7.22;6.53;;;;;;;;;;4969899;28;20221;-62
2022/08/14 07:35:12;;;;;;;7.90;7.40;;;;;;;;;;4969770;28;20435;-63
2022/08/14 07:37:41;;;;;;;7.28;6.82;;;;;;;;;;4969384;28;20634;-62
2022/08/14 07:40:08;;;;;;;7.75;7.25;;;;;;;;;;4969656;28;20325;-62
2022/08/14 07:42:35;;;;;;;7.65;6.95;;;;;;;;;;4969279;28;20214;-62
2022/08/14 07:45:02;;;;;;;7.57;6.93;;;;;;;;;;4969195;28;20265;-61
2022/08/14 07:47:29;;;;;;;7.13;6.68;;;;;;;;;;4968218;28;20210;-62
2022/08/14 07:50:00;;;;;;;7.32;6.78;;;;;;;;;;4968750;28;20229;-68
2022/08/14 07:52:27;;;;;;;7.32;6.72;;;;;;;;;;4968473;28;20827;-61
2022/08/14 07:54:56;;;;;;;7.88;7.38;;;;;;;;;;4969276;28;20218;-61
2022/08/14 07:57:23;;;;;;;7.45;6.85;;;;;;;;;;4969129;28;20761;-62
2022/08/14 07:59:50;;;;;;;8.45;6.57;;;;;;;;;;4968549;28;20620;-62
2022/08/14 08:02:17;;;;;;;7.40;6.90;;;;;;;;;;4968614;28;20206;-62
2022/08/14 08:04:46;;;;;;;7.38;6.82;;;;;;;;;;4969240;28;20210;-62
2022/08/14 08:07:13;;;;;;;6.65;6.25;;;;;;;;;;4969468;28;20764;-62
2022/08/14 08:09:44;;;;;;;6.78;6.38;;;;;;;;;;4968452;28;20209;-62
2022/08/14 08:12:14;;;;;;;7.38;6.85;;;;;;;;;;4968862;28;20321;-68
2022/08/14 08:14:42;;;;;;;7.40;6.68;;;;;;;;;;4969364;28;20238;-63
2022/08/14 08:17:09;;;;;;;7.53;6.95;;;;;;;;;;4967620;28;20238;-63
2022/08/14 08:19:38;;;;;;;7.90;7.18;;;;;;;;;;4969174;28;20242;-63
2022/08/14 08:22:05;;;;;;;7.20;6.70;;;;;;;;;;4968975;28;20288;-62
2022/08/14 08:24:33;;;;;;;6.82;6.43;;;;;;;;;;4969082;28;20213;-65
2022/08/14 08:27:01;;;;;;;6.80;6.30;;;;;;;;;;4968602;28;20214;-66
2022/08/14 08:29:29;;;;;;;7.10;6.55;;;;;;;;;;4970519;28;20257;-64
2022/08/14 08:31:58;;;;;;;6.25;5.85;;;;;;;;;;4972755;28;20265;-64
2022/08/14 08:34:25;;;;;;;7.38;6.82;;;;;;;;;;4973494;28;20241;-64
2022/08/14 08:36:52;;;;;;;6.88;6.38;;;;;;;;;;4972906;28;20383;-64
2022/08/14 08:39:19;;;;;;;6.65;6.25;;;;;;;;;;4972430;28;20595;-64
2022/08/14 08:41:47;;;;;;;7.25;5.97;;;;;;;;;;4965695;28;20745;-64
2022/08/14 08:44:15;;;;;;;5.97;5.68;;;;;;;;;;4965747;28;20218;-64
2022/08/14 08:46:45;;;;;;;7.43;6.65;;;;;;;;;;4972502;28;20599;-65
2022/08/14 08:49:12;;;;;;;5.95;5.50;;;;;;;;;;4968937;28;20228;-64
2022/08/14 08:51:39;;;;;;;8.73;5.95;;;;;;;;;;4972502;28;20217;-63
2022/08/14 08:54:07;;;;;;;6.68;6.13;;;;;;;;;;4972338;28;20596;-63
2022/08/14 08:56:35;;;;;;;7.18;6.68;;;;;;;;;;4972470;28;20210;-64
2022/08/14 08:59:03;;;;;;;7.60;6.68;;;;;;;;;;4972044;28;20214;-63
2022/08/14 09:01:30;;;;;;;6.78;6.30;;;;;;;;;;4972216;28;20225;-63
2022/08/14 09:04:04;;;;;;;6.38;6.03;;;;;;;;;;4971799;28;20293;-63
2022/08/14 09:06:35;;;;;;;6.97;6.55;;;;;;;;;;4972850;28;20221;-65
2022/08/14 09:09:02;;;;;;;6.72;6.22;;;;;;;;;;4974901;28;20221;-64
2022/08/14 09:11:30;;;;;;;8.63;6.40;;;;;;;;;;4972752;28;20229;-64
2022/08/14 09:13:59;;;;;;;7.28;6.68;;;;;;;;;;4973260;28;20206;-70
2022/08/14 09:16:26;;;;;;;9.45;6.75;;;;;;;;;;4971734;28;20210;-63
2022/08/14 09:18:54;;;;;;;6.88;6.47;;;;;;;;;;4971763;28;20242;-64
2022/08/14 09:21:23;;;;;;;6.50;5.90;;;;;;;;;;4972172;28;20263;-64
2022/08/14 09:23:50;;;;;;;5.90;5.50;;;;;;;;;;4971751;28;20225;-63
2022/08/14 09:26:17;;;;;;;5.38;5.13;;;;;;;;;;4971065;28;20214;-64
2022/08/14 09:28:44;;;;;;;5.80;5.50;;;;;;;;;;4970957;28;20684;-64
2022/08/14 09:31:12;;;;;;;5.90;5.50;;;;;;;;;;4971869;28;20277;-64
2022/08/14 09:33:48;;;;;;;6.55;5.93;;;;;;;;;;4971746;28;20199;-64
2022/08/14 09:36:39;;;;;;;5.50;5.05;;;;;;;;;;4971737;28;20301;-65
2022/08/14 09:39:13;;;;;;;5.45;5.18;;;;;;;;;;4916426;28;20208;-63
2022/08/14 09:41:48;;;;;;;5.78;5.40;;;;;;;;;;4971072;28;20214;-64
2022/08/14 09:44:20;;;;;;;6.00;5.40;;;;;;;;;;4970932;28;20602;-65
2022/08/14 09:46:52;;;;;;;5.32;5.03;;;;;;;;;;4970095;28;20262;-62
2022/08/14 09:49:30;;;;;;;5.28;4.97;;;;;;;;;;4971722;28;20260;-65
2022/08/14 09:52:04;;;;;;;5.30;4.93;;;;;;;;;;4955988;28;20226;-64
2022/08/14 09:54:38;;;;;;;5.38;5.03;;;;;;;;;;4971207;28;20302;-64
2022/08/14 09:57:05;;;;;;;5.40;4.95;;;;;;;;;;4971154;28;20207;-64
2022/08/14 09:59:40;;;;;;;6.32;5.72;;;;;;;;;;4972490;28;20223;-65
2022/08/14 10:02:18;;;;;;;5.45;5.25;;;;;;;;;;4971284;28;20214;-65
2022/08/14 10:04:46;;;;;;;5.65;5.25;;;;;;;;;;4980600;28;20214;-65
2022/08/14 10:07:13;;;;;;;4.90;4.50;;;;;;;;;;4970529;28;20648;-65
2022/08/14 10:09:49;;;;;;;5.20;4.88;;;;;;;;;;4963597;28;20628;-66
2022/08/14 10:12:16;;;;;;;6.05;4.95;;;;;;;;;;4970602;28;20213;-67
2022/08/14 10:14:43;;;;;;;5.20;4.93;;;;;;;;;;4970219;28;20561;-66
2022/08/14 10:17:10;;;;;;;5.15;4.68;;;;;;;;;;4970610;28;20238;-65
2022/08/14 10:19:48;;;;;;;5.72;5.32;;;;;;;;;;4970202;28;20238;-65
2022/08/14 10:22:15;;;;;;;5.28;4.97;;;;;;;;;;4970685;28;20303;-65
2022/08/14 10:24:45;;;;;;;5.60;5.20;;;;;;;;;;4970171;28;20210;-66
2022/08/14 10:27:17;;;;;;;5.00;4.80;;;;;;;;;;4971098;28;20221;-66
2022/08/14 10:29:44;;;;;;;5.60;5.15;;;;;;;;;;4974889;28;20304;-66
2022/08/14 10:32:12;;;;;;;5.88;5.45;;;;;;;;;;4990222;28;20218;-66
2022/08/14 10:34:40;;;;;;;5.38;5.03;;;;;;;;;;4980196;28;20253;-66
2022/08/14 10:37:08;;;;;;;4.57;4.38;;;;;;;;;;4970609;28;20222;-66
2022/08/14 10:39:36;;;;;;;5.03;4.82;;;;;;;;;;4970117;28;20494;-66
2022/08/14 10:42:05;;;;;;;8.57;6.70;;;;;;;;;;4969927;28;20237;-66
2022/08/14 10:44:37;;;;;;;7.10;6.32;;;;;;;;;;4970348;28;20207;-66
2022/08/14 10:47:06;;;;;;;6.65;6.05;;;;;;;;;;4969152;28;20249;-66
2022/08/14 10:49:34;;;;;;;7.00;5.78;;;;;;;;;;4969776;28;20312;-66
2022/08/14 10:52:05;;;;;;;5.90;5.60;;;;;;;;;;4969143;28;20297;-67
2022/08/14 10:54:33;;;;;;;6.50;5.90;;;;;;;;;;4969313;28;20221;-66
2022/08/14 10:57:11;;;;;;;5.47;5.07;;;;;;;;;;4969681;28;20207;-64
2022/08/14 10:59:48;;;;;;;5.55;5.20;;;;;;;;;;4969410;28;20258;-65
2022/08/14 11:02:29;;;;;;;6.20;5.57;;;;;;;;;;4967076;28;20209;-65
2022/08/14 11:05:07;;;;;;;6.28;5.78;;;;;;;;;;4967125;28;20284;-65
2022/08/14 11:07:42;;;;;;;8.23;5.82;;;;;;;;;;4968593;28;20305;-65
2022/08/14 11:10:10;;;;;;;6.30;5.68;;;;;;;;;;4968946;28;20205;-65
2022/08/14 11:12:46;;;;;;;6.13;5.72;;;;;;;;;;4967210;28;20240;-65
2022/08/14 11:15:16;;;;;;;6.30;4.80;;;;;;;;;;4961787;28;20592;-64
2022/08/14 11:17:44;;;;;;;4.85;4.38;;;;;;;;;;4968765;28;20312;-67
2022/08/14 11:20:12;;;;;;;3.97;3.88;;;;;;;;;;4968369;28;20336;-67
2022/08/14 11:22:41;;;;;;;3.25;3.10;;;;;;;;;;4968846;28;20221;-67
2022/08/14 11:25:10;;;;;;;3.30;3.30;;;;;;;;;;4968566;28;20696;-67
2022/08/14 11:27:38;;;;;;;4.07;3.88;;;;;;;;;;4967490;28;20317;-68
2022/08/14 11:30:07;;;;;;;4.28;4.03;;;;;;;;;;4968624;28;20217;-68
2022/08/14 11:32:35;;;;;;;4.45;4.10;;;;;;;;;;4968453;28;20686;-65
2022/08/14 11:35:03;;;;;;;5.53;5.13;;;;;;;;;;4968790;28;20297;-66
2022/08/14 11:37:32;;;;;;;5.22;4.93;;;;;;;;;;4969097;28;20630;-65
2022/08/14 11:39:59;;;;;;;6.20;5.13;;;;;;;;;;4968606;28;20237;-65
2022/08/14 11:42:27;;;;;;;5.93;5.22;;;;;;;;;;4969082;28;20252;-66
2022/08/14 11:44:58;;;;;;;5.05;4.70;;;;;;;;;;4969352;28;20243;-66
2022/08/14 11:47:25;;;;;;;5.05;4.72;;;;;;;;;;4968379;28;20248;-66
2022/08/14 11:49:54;;;;;;;4.90;4.45;;;;;;;;;;4969388;28;20202;-66
2022/08/14 11:52:21;;;;;;;4.32;3.97;;;;;;;;;;4968137;28;20217;-66
2022/08/14 11:54:57;;;;;;;4.47;4.05;;;;;;;;;;4964606;28;20213;-66
2022/08/14 11:57:24;;;;;;;3.80;3.67;;;;;;;;;;4969132;28;20210;-66
2022/08/14 12:00:00;;;;;;;3.78;3.47;;;;;;;;;;4968989;28;20226;-67
2022/08/14 12:02:27;;;;;;;3.40;3.30;;;;;;;;;;4968419;28;20813;-66
2022/08/14 12:04:56;;;;;;;3.40;3.30;;;;;;;;;;4971905;28;20236;-66
2022/08/14 12:07:23;;;;;;;3.33;3.22;;;;;;;;;;4972062;28;20213;-65
2022/08/14 12:09:54;;;;;;;3.88;3.67;;;;;;;;;;4972402;28;20671;-65
2022/08/14 12:12:22;;;;;;;4.53;3.42;;;;;;;;;;4972543;28;20260;-66
2022/08/14 12:14:52;;;;;;;3.88;3.70;;;;;;;;;;4959972;28;20668;-65
2022/08/14 12:17:20;;;;;;;3.63;3.30;;;;;;;;;;4973273;28;20610;-66
2022/08/14 12:19:48;;;;;;;3.70;3.42;;;;;;;;;;4972322;28;20233;-66
2022/08/14 12:22:16;;;;;;;3.13;2.90;;;;;;;;;;4972894;28;20747;-65
2022/08/14 12:24:44;;;;;;;3.50;3.40;;;;;;;;;;4972930;28;20217;-65
2022/08/14 12:27:12;;;;;;;3.28;3.17;;;;;;;;;;4972713;28;20229;-68
2022/08/14 12:29:41;;;;;;;3.80;3.60;;;;;;;;;;4972664;28;20695;-69
2022/08/14 12:32:08;;;;;;;3.72;3.42;;;;;;;;;;4972537;28;20237;-68
2022/08/14 12:34:36;;;;;;;3.20;3.03;;;;;;;;;;4972979;28;20348;-67
2022/08/14 12:37:04;;;;;;;3.17;3.08;;;;;;;;;;4972741;28;20223;-67
2022/08/14 12:39:33;;;;;;;5.78;3.17;;;;;;;;;;4972289;28;20206;-67
2022/08/14 12:42:05;;;;;;;3.30;3.30;;;;;;;;;;4972537;28;20280;-67
2022/08/14 12:44:32;;;;;;;3.50;3.40;;;;;;;;;;4972590;28;20310;-67
2022/08/14 12:47:03;;;;;;;3.15;3.13;;;;;;;;;;4971834;28;20260;-67
2022/08/14 12:49:31;;;;;;;3.22;3.13;;;;;;;;;;4972348;28;20751;-68
2022/08/14 12:51:58;;;;;;;3.30;3.10;;;;;;;;;;4972407;28;20206;-68
2022/08/14 12:54:26;;;;;;;3.00;2.90;;;;;;;;;;4971804;28;20217;-67
2022/08/14 12:57:03;;;;;;;4.05;3.20;;;;;;;;;;4971597;28;20691;-67
2022/08/14 12:59:31;;;;;;;3.50;3.30;;;;;;;;;;4969401;28;20204;-68
2022/08/14 13:01:59;;;;;;;4.40;4.00;;;;;;;;;;4971482;28;20244;-67
2022/08/14 13:04:30;;;;;;;3.80;3.50;;;;;;;;;;4971886;28;20317;-67
2022/08/14 13:07:03;;;;;;;3.42;3.20;;;;;;;;;;4971325;28;20224;-65
2022/08/14 13:09:30;;;;;;;3.50;3.30;;;;;;;;;;4971432;28;20265;-68
2022/08/14 13:12:00;;;;;;;3.95;3.65;;;;;;;;;;4971752;28;20213;-67
2022/08/14 13:14:29;;;;;;;3.90;3.60;;;;;;;;;;4972078;28;20213;-66
2022/08/14 13:16:57;;;;;;;3.03;2.92;;;;;;;;;;4970300;28;20249;-67
2022/08/14 13:19:25;;;;;;;6.57;3.50;;;;;;;;;;4971354;28;20712;-67
2022/08/14 13:21:54;;;;;;;6.45;3.20;;;;;;;;;;4971078;28;20233;-67
2022/08/14 13:24:21;;;;;;;3.42;3.22;;;;;;;;;;4970792;28;20206;-66
2022/08/14 13:26:50;;;;;;;3.42;3.17;;;;;;;;;;4971438;28;20264;-67
2022/08/14 13:29:19;;;;;;;3.42;3.33;;;;;;;;;;4971537;28;20662;-66
2022/08/14 13:31:50;;;;;;;3.47;3.38;;;;;;;;;;4970667;28;20194;-67
2022/08/14 13:34:18;;;;;;;3.42;2.90;;;;;;;;;;4971382;28;20791;-66
2022/08/14 13:36:45;;;;;;;3.25;2.90;;;;;;;;;;4971313;28;20217;-66
2022/08/14 13:39:15;;;;;;;2.90;2.80;;;;;;;;;;4970645;28;20212;-67
2022/08/14 13:41:43;;;;;;;3.33;3.13;;;;;;;;;;4970918;28;20236;-65
2022/08/14 13:44:10;;;;;;;2.97;2.92;;;;;;;;;;4970642;28;20201;-64
2022/08/14 13:46:39;;;;;;;3.35;3.15;;;;;;;;;;4971222;28;20206;-64
2022/08/14 13:49:09;;;;;;;3.13;2.92;;;;;;;;;;4970909;28;20214;-65
2022/08/14 13:51:38;;;;;;;5.40;3.30;;;;;;;;;;4971044;28;20204;-67
2022/08/14 13:54:06;;;;;;;3.25;3.08;;;;;;;;;;4970872;28;20205;-64
2022/08/14 13:56:37;;;;;;;2.85;2.85;;;;;;;;;;4970994;28;20636;-66
2022/08/14 13:59:05;;;;;;;3.90;3.70;;;;;;;;;;4971413;28;20213;-67
2022/08/14 14:01:33;;;;;;;3.60;3.40;;;;;;;;;;4970371;28;20222;-65
2022/08/14 14:04:04;;;;;;;3.25;3.15;;;;;;;;;;4970816;28;20214;-73
2022/08/14 14:06:31;;;;;;;3.28;3.17;;;;;;;;;;4966666;28;20202;-67
2022/08/14 14:08:58;;;;;;;3.10;3.03;;;;;;;;;;4961662;28;20248;-67
2022/08/14 14:11:26;;;;;;;3.60;3.50;;;;;;;;;;4965964;28;20210;-66
2022/08/14 14:13:53;;;;;;;3.60;3.40;;;;;;;;;;4964273;28;20281;-67
2022/08/14 14:16:21;;;;;;;3.67;3.53;;;;;;;;;;4970186;28;20766;-66
2022/08/14 14:18:50;;;;;;;3.30;3.20;;;;;;;;;;4970360;28;20245;-66
2022/08/14 14:21:29;;;;;;;3.53;3.42;;;;;;;;;;4969569;28;20236;-66
2022/08/14 14:23:59;;;;;;;3.15;3.05;;;;;;;;;;4970432;28;20214;-66
2022/08/14 14:26:27;;;;;;;3.47;3.28;;;;;;;;;;4969212;28;20209;-67
2022/08/14 14:28:55;;;;;;;3.40;3.17;;;;;;;;;;4970119;28;20209;-66
2022/08/14 14:31:23;;;;;;;3.30;3.10;;;;;;;;;;4969806;28;20218;-67
2022/08/14 14:33:52;;;;;;;3.30;3.10;;;;;;;;;;4970235;28;20320;-67
2022/08/14 14:36:23;;;;;;;3.03;2.95;;;;;;;;;;4969102;28;20209;-66
2022/08/14 14:38:54;;;;;;;3.45;3.15;;;;;;;;;;4970046;28;20213;-67
2022/08/14 14:41:22;;;;;;;3.13;3.05;;;;;;;;;;4969472;28;20599;-66
2022/08/14 14:43:51;;;;;;;3.33;3.10;;;;;;;;;;4967207;28;20265;-66
2022/08/14 14:46:18;;;;;;;3.28;3.10;;;;;;;;;;4969224;28;20213;-66
2022/08/14 14:48:45;;;;;;;3.10;2.85;;;;;;;;;;4967381;28;20213;-66
2022/08/14 14:51:13;;;;;;;3.15;3.05;;;;;;;;;;4968740;28;20272;-67
2022/08/14 14:53:42;;;;;;;3.03;3.03;;;;;;;;;;4968864;28;20202;-68
2022/08/14 14:56:10;;;;;;;3.80;3.15;;;;;;;;;;4968325;28;20236;-67
2022/08/14 14:58:37;;;;;;;3.13;2.90;;;;;;;;;;4968775;28;20324;-67
2022/08/14 15:01:06;;;;;;;3.03;2.83;;;;;;;;;;4966562;28;20250;-68
2022/08/14 15:03:34;;;;;;;4.13;3.42;;;;;;;;;;4966430;28;20305;-66
2022/08/14 15:06:01;;;;;;;2.95;2.83;;;;;;;;;;4968669;28;20213;-65